createdAt,value
2023-05-20T00:00:06.902Z,56.70
2023-05-20T00:02:35.042Z,56.50
2023-05-20T00:05:03.613Z,56.60
2023-05-20T00:07:31.585Z,56.60
2023-05-20T00:10:00.815Z,56.70
2023-05-20T00:12:28.690Z,56.60
2023-05-20T00:14:56.558Z,56.80
2023-05-20T00:17:26.402Z,56.80
2023-05-20T00:19:54.356Z,57.00
2023-05-20T00:22:22.694Z,56.80
2023-05-20T00:24:50.570Z,56.80
2023-05-20T00:27:19.773Z,57.00
2023-05-20T00:29:47.695Z,57.10
2023-05-20T00:32:16.098Z,56.90
2023-05-20T00:34:44.410Z,57.10
2023-05-20T00:37:12.545Z,57.30
2023-05-20T00:39:40.934Z,57.90
2023-05-20T00:42:08.828Z,57.00
2023-05-20T00:44:38.055Z,57.40
2023-05-20T00:47:06.479Z,57.30
2023-05-20T00:49:36.178Z,57.60
2023-05-20T00:52:04.189Z,57.70
2023-05-20T00:54:32.473Z,57.70
2023-05-20T00:57:02.969Z,58.20
2023-05-20T00:59:31.655Z,58.20
2023-05-20T01:02:01.656Z,58.30
2023-05-20T01:04:29.680Z,58.40
2023-05-20T01:06:57.921Z,58.50
2023-05-20T01:09:26.000Z,58.60
2023-05-20T01:12:00.034Z,58.50
2023-05-20T01:14:30.696Z,59.60
2023-05-20T01:17:09.241Z,58.80
2023-05-20T01:19:42.145Z,58.80
2023-05-20T01:22:12.464Z,58.80
2023-05-20T01:24:42.921Z,59.10
2023-05-20T01:27:13.848Z,58.90
2023-05-20T01:29:46.073Z,59.10
2023-05-20T01:32:20.113Z,59.30
2023-05-20T01:34:50.944Z,59.40
2023-05-20T01:37:20.275Z,59.50
2023-05-20T01:39:51.102Z,59.50
2023-05-20T01:42:21.350Z,59.50
2023-05-20T01:44:49.781Z,59.10
2023-05-20T01:47:17.755Z,59.10
2023-05-20T01:49:47.616Z,59.20
2023-05-20T01:52:16.436Z,59.30
2023-05-20T01:54:50.846Z,59.30
2023-05-20T01:57:21.015Z,59.20
2023-05-20T01:59:50.870Z,59.40
2023-05-20T02:02:19.019Z,59.60
2023-05-20T02:04:48.688Z,59.30
2023-05-20T02:07:18.644Z,59.40
2023-05-20T02:09:49.948Z,59.50
2023-05-20T02:12:17.922Z,59.50
2023-05-20T02:14:50.371Z,59.70
2023-05-20T02:17:19.002Z,59.80
2023-05-20T02:19:47.546Z,60.20
2023-05-20T02:22:15.822Z,60.50
2023-05-20T02:24:45.061Z,60.80
2023-05-20T02:27:13.076Z,60.60
2023-05-20T02:29:41.210Z,61.00
2023-05-20T02:32:11.145Z,61.20
2023-05-20T02:34:39.130Z,61.30
2023-05-20T02:37:07.126Z,61.70
2023-05-20T02:39:35.114Z,61.30
2023-05-20T02:42:04.533Z,61.50
2023-05-20T02:44:32.720Z,61.60
2023-05-20T02:47:00.553Z,61.80
2023-05-20T02:49:32.141Z,61.80
2023-05-20T02:52:00.362Z,62.20
2023-05-20T02:54:28.240Z,62.00
2023-05-20T02:56:56.135Z,62.20
2023-05-20T02:59:24.459Z,62.40
2023-05-20T03:01:52.584Z,62.30
2023-05-20T03:04:21.557Z,62.80
2023-05-20T03:06:52.028Z,63.00
2023-05-20T03:09:20.832Z,63.20
2023-05-20T03:11:49.549Z,62.90
2023-05-20T03:14:17.729Z,62.90
2023-05-20T03:16:47.443Z,62.70
2023-05-20T03:19:17.253Z,62.50
2023-05-20T03:21:46.524Z,62.50
2023-05-20T03:24:18.696Z,62.50
2023-05-20T03:26:48.659Z,62.50
2023-05-20T03:29:18.972Z,62.10
2023-05-20T03:31:50.011Z,62.20
2023-05-20T03:34:18.058Z,62.40
2023-05-20T03:36:47.118Z,62.50
2023-05-20T03:39:16.480Z,63.10
2023-05-20T03:41:45.362Z,63.30
2023-05-20T03:44:14.138Z,63.90
2023-05-20T03:46:42.192Z,62.50
2023-05-20T03:49:10.304Z,62.80
2023-05-20T03:51:38.258Z,62.60
2023-05-20T03:54:11.081Z,62.40
2023-05-20T03:56:40.544Z,62.10
2023-05-20T03:59:08.478Z,62.50
2023-05-20T04:01:37.241Z,62.80
2023-05-20T04:04:05.914Z,62.60
2023-05-20T04:06:33.970Z,62.70
2023-05-20T04:09:01.954Z,62.50
2023-05-20T04:11:29.828Z,61.80
2023-05-20T04:14:00.155Z,62.10
2023-05-20T04:16:29.673Z,61.80
2023-05-20T04:18:59.021Z,61.90
2023-05-20T04:21:27.188Z,61.90
2023-05-20T04:23:55.058Z,61.80
2023-05-20T04:26:22.938Z,61.50
2023-05-20T04:28:51.641Z,61.50
2023-05-20T04:31:21.250Z,62.30
2023-05-20T04:33:49.170Z,62.00
2023-05-20T04:36:17.457Z,62.10
2023-05-20T04:38:47.023Z,62.10
2023-05-20T04:41:15.933Z,62.20
2023-05-20T04:43:46.029Z,61.50
2023-05-20T04:46:14.170Z,61.20
2023-05-20T04:48:44.722Z,59.70
2023-05-20T04:51:14.327Z,59.40
2023-05-20T04:53:44.685Z,58.50
2023-05-20T04:56:15.258Z,57.00
2023-05-20T04:58:43.814Z,55.10
2023-05-20T05:01:11.738Z,55.20
2023-05-20T05:03:39.682Z,55.30
2023-05-20T05:06:08.954Z,56.20
2023-05-20T05:08:36.909Z,57.20
2023-05-20T05:11:08.599Z,58.10
2023-05-20T05:13:36.581Z,59.20
2023-05-20T05:16:04.721Z,59.60
2023-05-20T05:18:34.612Z,60.30
2023-05-20T05:21:03.522Z,59.60
2023-05-20T05:23:33.440Z,60.50
2023-05-20T05:26:01.543Z,60.10
2023-05-20T05:28:29.672Z,59.60
2023-05-20T05:30:58.561Z,59.40
2023-05-20T05:33:27.343Z,59.10
2023-05-20T05:35:58.742Z,59.70
2023-05-20T05:38:26.744Z,59.50
2023-05-20T05:40:56.145Z,59.40
2023-05-20T05:43:24.536Z,59.30
2023-05-20T05:45:53.634Z,59.40
2023-05-20T05:48:22.117Z,59.80
2023-05-20T05:50:50.121Z,60.00
2023-05-20T05:53:19.891Z,59.30
2023-05-20T05:55:49.772Z,59.80
2023-05-20T05:58:19.456Z,59.50
2023-05-20T06:00:47.432Z,59.70
2023-05-20T06:03:15.524Z,59.60
2023-05-20T06:05:46.884Z,59.90
2023-05-20T06:08:14.864Z,60.40
2023-05-20T06:10:42.896Z,60.40
2023-05-20T06:13:10.895Z,59.50
2023-05-20T06:15:40.979Z,59.80
2023-05-20T06:18:09.046Z,60.50
2023-05-20T06:20:36.984Z,60.10
2023-05-20T06:23:04.887Z,59.70
2023-05-20T06:25:42.012Z,59.90
2023-05-20T06:28:10.424Z,59.40
2023-05-20T06:30:39.887Z,59.00
2023-05-20T06:33:07.841Z,60.30
2023-05-20T06:35:36.816Z,59.70
2023-05-20T06:38:06.079Z,59.80
2023-05-20T06:40:34.931Z,59.30
2023-05-20T06:43:02.832Z,59.00
2023-05-20T06:46:04.723Z,59.70
2023-05-20T06:48:37.476Z,59.60
2023-05-20T06:51:08.126Z,60.20
2023-05-20T06:53:36.159Z,60.10
2023-05-20T06:56:04.529Z,60.10
2023-05-20T06:58:34.070Z,59.70
2023-05-20T07:01:01.931Z,59.50
2023-05-20T07:03:31.330Z,59.90
2023-05-20T07:06:00.440Z,59.70
2023-05-20T07:08:28.432Z,59.30
2023-05-20T07:10:57.049Z,58.50
2023-05-20T07:13:26.023Z,59.90
2023-05-20T07:15:54.253Z,60.10
2023-05-20T07:18:22.515Z,59.70
2023-05-20T07:20:56.836Z,59.30
2023-05-20T07:23:51.169Z,59.10
2023-05-20T07:26:19.291Z,58.90
2023-05-20T07:28:47.223Z,59.00
2023-05-20T07:31:15.371Z,59.20
2023-05-20T07:33:45.047Z,58.80
2023-05-20T07:36:14.887Z,58.20
2023-05-20T07:38:53.166Z,58.60
2023-05-20T07:41:29.569Z,58.30
2023-05-20T07:43:57.613Z,58.80
2023-05-20T07:46:25.564Z,58.20
2023-05-20T07:48:53.746Z,58.30
2023-05-20T07:51:23.209Z,58.50
2023-05-20T07:53:51.155Z,59.40
2023-05-20T07:56:20.032Z,59.30
2023-05-20T07:58:54.013Z,59.00
2023-05-20T08:01:22.924Z,59.10
2023-05-20T08:03:51.449Z,59.20
2023-05-20T08:06:24.366Z,59.00
2023-05-20T08:08:54.289Z,58.40
2023-05-20T08:11:27.015Z,58.80
2023-05-20T08:13:55.251Z,58.70
2023-05-20T08:16:26.781Z,58.70
2023-05-20T08:18:55.988Z,58.70
2023-05-20T08:21:25.291Z,58.40
2023-05-20T08:23:53.161Z,58.30
2023-05-20T08:26:21.885Z,58.60
2023-05-20T08:28:51.136Z,58.90
2023-05-20T08:31:19.756Z,58.60
2023-05-20T08:33:47.786Z,58.10
2023-05-20T08:36:16.052Z,57.90
2023-05-20T08:38:46.473Z,58.20
2023-05-20T08:41:14.331Z,58.00
2023-05-20T08:43:45.464Z,58.00
2023-05-20T08:46:15.177Z,58.00
2023-05-20T08:48:46.463Z,58.30
2023-05-20T08:51:17.068Z,58.40
2023-05-20T08:53:47.040Z,58.30
2023-05-20T08:56:16.695Z,58.60
2023-05-20T08:58:46.662Z,58.30
2023-05-20T09:01:14.724Z,57.90
2023-05-20T09:03:43.331Z,57.60
2023-05-20T09:06:12.617Z,58.10
2023-05-20T09:08:40.445Z,58.10
2023-05-20T09:11:11.452Z,58.30
2023-05-20T09:13:39.438Z,57.90
2023-05-20T09:16:07.782Z,57.80
2023-05-20T09:18:39.036Z,57.90
2023-05-20T09:21:07.743Z,57.80
2023-05-20T09:23:37.972Z,57.60
2023-05-20T09:26:06.095Z,58.00
2023-05-20T09:28:38.137Z,57.70
2023-05-20T09:31:08.737Z,57.70
2023-05-20T09:33:39.040Z,57.50
2023-05-20T09:36:09.356Z,57.20
2023-05-20T09:38:39.520Z,57.30
2023-05-20T09:41:09.082Z,56.60
2023-05-20T09:43:40.241Z,56.40
2023-05-20T09:46:09.147Z,55.90
2023-05-20T09:48:38.023Z,55.70
2023-05-20T09:51:07.204Z,55.70
2023-05-20T09:53:35.116Z,55.30
2023-05-20T09:56:03.061Z,54.70
2023-05-20T09:58:31.301Z,54.20
2023-05-20T10:01:00.900Z,54.20
2023-05-20T10:03:29.134Z,54.30
2023-05-20T10:06:12.540Z,54.60
2023-05-20T10:08:56.454Z,54.80
2023-05-20T10:11:34.401Z,55.80
2023-05-20T10:14:20.715Z,55.90
2023-05-20T10:16:57.366Z,55.90
2023-05-20T10:19:30.941Z,55.50
2023-05-20T10:22:01.229Z,54.30
2023-05-20T10:24:33.660Z,53.80
2023-05-20T10:27:04.557Z,53.80
2023-05-20T10:29:43.614Z,53.70
2023-05-20T10:32:12.891Z,53.10
2023-05-20T10:34:50.543Z,53.70
2023-05-20T10:37:31.173Z,53.90
2023-05-20T10:40:08.414Z,53.70
2023-05-20T10:42:36.341Z,55.00
2023-05-20T10:45:04.825Z,55.30
2023-05-20T10:47:34.208Z,56.20
2023-05-20T10:50:05.088Z,56.70
2023-05-20T10:52:34.785Z,56.60
2023-05-20T10:55:03.400Z,56.30
2023-05-20T10:57:32.117Z,56.50
2023-05-20T11:00:01.047Z,56.80
2023-05-20T11:02:29.615Z,56.80
2023-05-20T11:04:59.116Z,56.20
2023-05-20T11:07:28.784Z,57.10
2023-05-20T11:09:56.765Z,56.70
2023-05-20T11:12:26.154Z,55.50
2023-05-20T11:14:54.327Z,55.00
2023-05-20T11:17:22.412Z,55.50
2023-05-20T11:19:50.468Z,55.50
2023-05-20T11:22:19.688Z,55.80
2023-05-20T11:24:47.787Z,56.00
2023-05-20T11:27:15.674Z,55.50
2023-05-20T11:29:43.724Z,55.80
2023-05-20T11:32:11.720Z,55.60
2023-05-20T11:34:41.012Z,55.40
2023-05-20T11:37:09.604Z,55.30
2023-05-20T11:39:39.228Z,55.00
2023-05-20T11:42:07.301Z,55.90
2023-05-20T11:44:35.519Z,55.20
2023-05-20T11:47:04.380Z,55.00
2023-05-20T11:49:40.056Z,55.50
2023-05-20T11:52:10.194Z,55.80
2023-05-20T11:54:39.471Z,56.00
2023-05-20T11:57:07.795Z,55.80
2023-05-20T11:59:36.646Z,56.00
2023-05-20T12:02:04.665Z,55.90
2023-05-20T12:04:32.606Z,55.90
2023-05-20T12:07:01.023Z,55.80
2023-05-20T12:09:28.863Z,55.50
2023-05-20T12:11:59.269Z,55.10
2023-05-20T12:14:27.129Z,55.70
2023-05-20T12:16:54.966Z,56.00
2023-05-20T12:19:22.877Z,55.60
2023-05-20T12:21:52.640Z,55.30
2023-05-20T12:24:21.186Z,55.50
2023-05-20T12:26:49.053Z,55.80
2023-05-20T12:29:18.303Z,56.00
2023-05-20T12:31:46.232Z,56.20
2023-05-20T12:34:14.202Z,56.20
2023-05-20T12:36:42.355Z,56.40
2023-05-20T12:39:10.961Z,56.50
2023-05-20T12:41:38.899Z,56.20
2023-05-20T12:44:07.015Z,56.30
2023-05-20T12:46:37.671Z,56.30
2023-05-20T12:49:05.726Z,56.20
2023-05-20T12:51:33.680Z,56.20
2023-05-20T12:54:02.284Z,56.20
2023-05-20T12:56:30.609Z,56.30
2023-05-20T12:58:58.533Z,56.90
2023-05-20T13:01:26.646Z,56.20
2023-05-20T13:03:55.923Z,56.30
2023-05-20T13:06:23.806Z,56.60
2023-05-20T13:08:51.649Z,56.80
2023-05-20T13:11:19.628Z,56.70
2023-05-20T13:13:47.510Z,56.30
2023-05-20T13:16:16.745Z,56.60
2023-05-20T13:18:44.733Z,57.00
2023-05-20T13:21:13.992Z,57.00
2023-05-20T13:23:42.580Z,57.00
2023-05-20T13:26:10.718Z,57.10
2023-05-20T13:28:38.626Z,57.00
2023-05-20T13:31:07.615Z,57.20
2023-05-20T13:33:35.606Z,56.70
2023-05-20T13:36:03.645Z,56.40
2023-05-20T13:38:34.450Z,56.90
2023-05-20T13:41:03.102Z,56.40
2023-05-20T13:43:33.176Z,56.20
2023-05-20T13:46:01.147Z,56.20
2023-05-20T13:48:29.331Z,56.30
2023-05-20T13:50:57.201Z,56.80
2023-05-20T13:53:25.045Z,56.50
2023-05-20T13:55:54.431Z,57.00
2023-05-20T13:58:22.342Z,56.60
2023-05-20T14:00:50.338Z,56.60
2023-05-20T14:03:18.379Z,56.40
2023-05-20T14:05:46.645Z,56.50
2023-05-20T14:08:14.825Z,56.20
2023-05-20T14:10:42.736Z,55.70
2023-05-20T14:13:11.948Z,55.70
2023-05-20T14:15:39.987Z,56.40
2023-05-20T14:18:07.897Z,56.20
2023-05-20T14:20:36.102Z,55.80
2023-05-20T14:23:04.129Z,55.90
2023-05-20T14:25:31.986Z,55.50
2023-05-20T14:27:59.880Z,55.90
2023-05-20T14:30:29.193Z,55.90
2023-05-20T14:32:57.060Z,56.20
2023-05-20T14:35:25.072Z,56.20
2023-05-20T14:37:53.891Z,56.50
2023-05-20T14:40:21.964Z,56.90
2023-05-20T14:42:49.820Z,56.40
2023-05-20T14:45:17.906Z,56.40
2023-05-20T14:47:47.223Z,56.40
2023-05-20T14:50:15.286Z,56.80
2023-05-20T14:52:43.376Z,56.80
2023-05-20T14:55:11.394Z,56.80
2023-05-20T14:57:39.366Z,56.80
2023-05-20T15:00:08.711Z,56.80
2023-05-20T15:02:36.761Z,56.60
2023-05-20T15:05:06.760Z,56.60
2023-05-20T15:07:34.675Z,56.10
2023-05-20T15:10:02.610Z,56.80
2023-05-20T15:12:30.512Z,56.90
2023-05-20T15:14:58.349Z,56.80
2023-05-20T15:17:26.559Z,56.70
2023-05-20T15:19:54.539Z,56.40
2023-05-20T15:22:23.801Z,56.50
2023-05-20T15:24:51.764Z,56.60
2023-05-20T15:27:19.773Z,57.20
2023-05-20T15:29:48.577Z,57.00
2023-05-20T15:32:16.739Z,57.40
2023-05-20T15:34:44.611Z,57.60
2023-05-20T15:37:12.591Z,57.80
2023-05-20T15:39:42.152Z,57.40
2023-05-20T15:42:13.655Z,57.50
2023-05-20T15:44:41.661Z,57.60
2023-05-20T15:47:09.507Z,58.20
2023-05-20T15:49:37.479Z,58.20
2023-05-20T15:52:06.113Z,59.00
2023-05-20T15:54:33.971Z,59.10
2023-05-20T15:57:03.429Z,59.20
2023-05-20T15:59:31.378Z,59.70
2023-05-20T16:01:59.538Z,59.40
2023-05-20T16:04:27.526Z,59.30
2023-05-20T16:06:55.825Z,59.80
2023-05-20T16:09:23.717Z,59.50
2023-05-20T16:11:51.733Z,59.60
2023-05-20T16:14:21.031Z,59.50
2023-05-20T16:16:49.016Z,60.00
2023-05-20T16:32:08.389Z,59.30
2023-05-20T16:34:36.323Z,60.20
2023-05-20T16:37:04.350Z,60.50
2023-05-20T16:39:32.231Z,60.60
2023-05-20T16:42:00.573Z,61.00
2023-05-20T16:44:28.432Z,60.90
2023-05-20T16:46:56.348Z,60.70
2023-05-20T16:49:25.531Z,60.70
2023-05-20T16:51:53.596Z,61.00
2023-05-20T16:54:21.463Z,60.70
2023-05-20T16:56:50.616Z,61.30
2023-05-20T16:59:18.690Z,61.10
2023-05-20T17:01:49.143Z,61.00
2023-05-20T17:04:17.030Z,61.50
2023-05-20T17:06:49.675Z,61.80
2023-05-20T17:09:17.655Z,61.40
2023-05-20T17:11:46.155Z,61.50
2023-05-20T17:14:14.314Z,61.70
2023-05-20T17:16:42.565Z,61.60
2023-05-20T17:19:10.543Z,61.30
2023-05-20T17:21:38.460Z,61.80
2023-05-20T17:24:10.913Z,61.90
2023-05-20T17:26:38.810Z,61.90
2023-05-20T17:29:06.913Z,62.20
2023-05-20T17:31:35.087Z,62.30
2023-05-20T17:34:03.006Z,62.60
2023-05-20T17:36:31.496Z,62.10
2023-05-20T17:38:59.364Z,62.40
2023-05-20T17:41:28.870Z,62.20
2023-05-20T17:43:56.750Z,62.20
2023-05-20T17:46:24.605Z,61.70
2023-05-20T17:48:53.113Z,61.90
2023-05-20T17:51:20.976Z,61.80
2023-05-20T17:53:48.950Z,61.70
2023-05-20T17:56:16.861Z,62.00
2023-05-20T17:58:46.836Z,61.90
2023-05-20T18:01:15.551Z,61.90
2023-05-20T18:03:43.890Z,61.90
2023-05-20T18:06:12.184Z,62.30
2023-05-20T18:08:40.200Z,62.20
2023-05-20T18:11:08.066Z,62.20
2023-05-20T18:13:35.960Z,62.30
2023-05-20T18:16:05.978Z,62.30
2023-05-20T18:18:33.968Z,62.20
2023-05-20T18:21:01.856Z,62.40
2023-05-20T18:23:29.774Z,62.20
2023-05-20T18:25:57.917Z,62.80
2023-05-20T18:28:25.845Z,62.40
2023-05-20T18:30:55.422Z,62.70
2023-05-20T18:33:24.950Z,62.60
2023-05-20T18:35:53.962Z,63.40
2023-05-20T18:38:29.558Z,62.80
2023-05-20T18:40:57.496Z,62.70
2023-05-20T18:43:25.495Z,62.50
2023-05-20T18:45:53.554Z,62.60
2023-05-20T18:48:27.117Z,62.90
2023-05-20T18:50:55.420Z,62.20
2023-05-20T18:53:23.731Z,62.50
2023-05-20T18:55:52.311Z,62.70
2023-05-20T18:58:41.971Z,62.40
2023-05-20T19:01:09.945Z,62.40
2023-05-20T19:03:39.279Z,62.60
2023-05-20T19:06:07.218Z,62.60
2023-05-20T19:08:35.285Z,62.40
2023-05-20T19:11:03.211Z,62.80
2023-05-20T19:13:31.328Z,62.30
2023-05-20T19:15:59.292Z,62.70
2023-05-20T19:18:28.132Z,62.90
2023-05-20T19:20:57.353Z,63.10
2023-05-20T19:23:25.199Z,63.50
2023-05-20T19:25:53.068Z,63.70
2023-05-20T19:28:21.005Z,63.70
2023-05-20T19:30:48.932Z,63.40
2023-05-20T19:33:16.821Z,63.20
2023-05-20T19:35:44.685Z,63.30
2023-05-20T19:38:13.956Z,62.40
2023-05-20T19:40:41.800Z,62.80
2023-05-20T19:43:09.675Z,63.20
2023-05-20T19:45:37.681Z,63.00
2023-05-20T19:48:07.130Z,62.90
2023-05-20T19:50:35.444Z,63.20
2023-05-20T19:53:06.327Z,63.20
2023-05-20T19:55:37.206Z,63.20
2023-05-20T19:58:05.951Z,63.20
2023-05-20T20:00:33.922Z,63.60
2023-05-20T20:03:03.350Z,63.20
2023-05-20T20:05:31.317Z,63.50
2023-05-20T20:07:59.243Z,63.40
2023-05-20T20:10:27.316Z,63.40
2023-05-20T20:12:56.511Z,63.20
2023-05-20T20:15:25.038Z,63.50
2023-05-20T20:17:52.904Z,63.90
2023-05-20T20:20:21.079Z,64.40
2023-05-20T20:22:48.956Z,64.00
2023-05-20T20:25:17.129Z,63.50
2023-05-20T20:27:45.061Z,63.70
2023-05-20T20:30:15.368Z,63.50
2023-05-20T20:32:43.492Z,64.00
2023-05-20T20:35:11.642Z,63.60
2023-05-20T20:37:39.554Z,63.40
2023-05-20T20:40:13.249Z,63.30
2023-05-20T20:42:44.646Z,63.40
2023-05-20T20:45:15.026Z,63.40
2023-05-20T20:47:43.782Z,63.30
2023-05-20T20:50:12.457Z,63.70
2023-05-20T20:52:42.575Z,63.60
2023-05-20T20:55:11.053Z,63.70
2023-05-20T20:57:39.174Z,63.60
2023-05-20T21:00:15.875Z,63.70
2023-05-20T21:02:45.279Z,64.10
2023-05-20T21:05:14.380Z,63.90
2023-05-20T21:07:44.392Z,63.90
2023-05-20T21:10:12.447Z,63.80
2023-05-20T21:12:40.326Z,63.60
2023-05-20T21:15:09.916Z,63.60
2023-05-20T21:17:37.779Z,63.90
2023-05-20T21:20:08.513Z,63.80
2023-05-20T21:22:36.451Z,63.70
2023-05-20T21:25:04.572Z,64.30
2023-05-20T21:27:32.411Z,64.20
2023-05-20T21:30:00.344Z,64.00
2023-05-20T21:32:28.238Z,64.00
2023-05-20T21:34:58.186Z,63.90
2023-05-20T21:37:27.653Z,64.00
2023-05-20T21:39:55.541Z,64.20
2023-05-20T21:42:23.566Z,64.10
2023-05-20T21:45:08.883Z,64.20
2023-05-20T21:47:38.864Z,64.00
2023-05-20T21:50:08.178Z,64.10
2023-05-20T21:52:39.621Z,63.90
2023-05-20T21:55:08.821Z,64.40
2023-05-20T21:57:36.842Z,64.70
2023-05-20T22:00:09.769Z,65.00
2023-05-20T22:02:38.053Z,64.50
2023-05-20T22:05:06.535Z,64.60
2023-05-20T22:07:34.585Z,64.30
2023-05-20T22:10:03.854Z,64.40
2023-05-20T22:12:31.932Z,64.60
2023-05-20T22:14:59.828Z,64.70
2023-05-20T22:17:28.051Z,64.70
2023-05-20T22:19:55.999Z,65.00
2023-05-20T22:22:23.832Z,65.20
2023-05-20T22:24:51.699Z,64.70
2023-05-20T22:27:21.198Z,65.00
2023-05-20T22:29:49.035Z,64.80
2023-05-20T22:32:16.886Z,65.20
2023-05-20T22:34:46.410Z,65.00
2023-05-20T22:37:14.352Z,65.10
2023-05-20T22:39:42.238Z,65.00
2023-05-20T22:42:10.102Z,65.10
2023-05-20T22:44:39.342Z,65.60
2023-05-20T22:47:07.337Z,65.40
2023-05-20T22:49:35.547Z,65.50
2023-05-20T22:52:03.527Z,65.80
2023-05-20T22:54:31.408Z,65.60
2023-05-20T22:56:59.860Z,65.60
2023-05-20T22:59:30.999Z,65.90
2023-05-20T23:02:00.335Z,65.60
2023-05-20T23:04:28.227Z,65.40
2023-05-20T23:06:58.622Z,65.30
2023-05-20T23:09:27.289Z,65.30
2023-05-20T23:11:55.215Z,65.20
2023-05-20T23:14:23.230Z,65.40
2023-05-20T23:16:51.156Z,66.10
2023-05-20T23:19:20.561Z,65.70
2023-05-20T23:21:48.545Z,66.00
2023-05-20T23:24:16.630Z,66.30
2023-05-20T23:26:44.624Z,66.60
2023-05-20T23:29:12.502Z,66.70
2023-05-20T23:31:40.431Z,66.30
2023-05-20T23:34:08.518Z,66.70
2023-05-20T23:36:41.881Z,66.10
2023-05-20T23:39:10.225Z,66.40
2023-05-20T23:41:38.072Z,66.00
2023-05-20T23:44:06.051Z,66.40
2023-05-20T23:46:33.999Z,66.10
2023-05-20T23:49:02.164Z,66.40
2023-05-20T23:51:30.035Z,66.30
2023-05-20T23:53:59.275Z,66.10
2023-05-20T23:56:27.113Z,66.40
2023-05-20T23:58:54.998Z,66.40
